Time;durP1;ratioP1;P1;durP2;ratioP2;P2;SDS_P1;SDS_P2;PMS_P1;PMS_P2;Temp;Humidity;BMP_temperature;BMP_pressure;BME280_temperature;BME280_humidity;BME280_pressure;Samples;Min_cycle;Max_cycle;Signal;HPM_P1;HPM_P2
2022/07/24 00:00:56;;;;;;;8.40;7.60;;;21.90;99.90;;;;;;5054042;28;20236;-56
2022/07/24 00:03:22;;;;;;;9.05;7.53;;;21.90;99.90;;;;;;5053788;28;20260;-57
2022/07/24 00:05:49;;;;;;;8.35;7.32;;;21.90;99.90;;;;;;5054154;28;20228;-57
2022/07/24 00:08:16;;;;;;;8.43;7.65;;;21.80;99.90;;;;;;5053819;28;20677;-57
2022/07/24 00:10:43;;;;;;;10.05;8.27;;;21.80;99.90;;;;;;5053898;28;20213;-57
2022/07/24 00:13:11;;;;;;;8.93;8.07;;;21.80;99.90;;;;;;5053492;28;20221;-57
2022/07/24 00:15:37;;;;;;;8.98;8.07;;;21.80;99.90;;;;;;5053931;28;20282;-57
2022/07/24 00:18:04;;;;;;;10.30;8.05;;;21.60;99.90;;;;;;5053827;28;20205;-57
2022/07/24 00:20:31;;;;;;;8.43;7.50;;;21.60;99.90;;;;;;5054042;28;20235;-57
2022/07/24 00:22:57;;;;;;;8.15;7.35;;;21.60;99.90;;;;;;5053862;28;20209;-57
2022/07/24 00:25:24;;;;;;;9.20;8.32;;;21.70;99.90;;;;;;5053517;28;20279;-58
2022/07/24 00:27:51;;;;;;;9.35;8.32;;;21.70;99.90;;;;;;5053647;28;20339;-58
2022/07/24 00:30:19;;;;;;;8.52;7.72;;;21.80;99.90;;;;;;5053452;28;20205;-57
2022/07/24 00:32:46;;;;;;;9.52;7.85;;;21.80;99.90;;;;;;5053111;28;20230;-55
2022/07/24 00:35:13;;;;;;;8.82;7.93;;;21.90;99.90;;;;;;5053360;28;20229;-56
2022/07/24 00:37:40;;;;;;;9.32;8.38;;;21.80;99.90;;;;;;5053256;28;20212;-58
2022/07/24 00:40:07;;;;;;;9.00;8.20;;;21.80;99.90;;;;;;5053574;28;20240;-55
2022/07/24 00:42:34;;;;;;;9.02;7.80;;;21.80;99.90;;;;;;5053241;28;20202;-55
2022/07/24 00:45:01;;;;;;;8.32;7.63;;;21.70;99.90;;;;;;5052889;28;20225;-55
2022/07/24 00:47:29;;;;;;;9.05;8.25;;;21.70;99.90;;;;;;5053478;28;20217;-56
2022/07/24 00:49:55;;;;;;;9.90;7.93;;;21.60;99.90;;;;;;5053455;28;20205;-57
2022/07/24 00:52:22;;;;;;;9.23;8.23;;;21.60;99.90;;;;;;5053375;28;20217;-56
2022/07/24 00:54:49;;;;;;;9.70;8.48;;;21.50;99.90;;;;;;5052614;28;20725;-57
2022/07/24 00:57:15;;;;;;;8.35;7.57;;;21.50;99.90;;;;;;5053164;28;20232;-56
2022/07/24 00:59:42;;;;;;;9.25;8.20;;;21.50;99.90;;;;;;5053688;28;20214;-56
2022/07/24 01:02:09;;;;;;;8.93;7.80;;;21.50;99.90;;;;;;5053941;28;20198;-56
2022/07/24 01:04:38;;;;;;;10.23;8.00;;;21.40;99.90;;;;;;5053613;28;20225;-57
2022/07/24 01:07:05;;;;;;;9.15;8.25;;;21.40;99.90;;;;;;5053559;28;20205;-57
2022/07/24 01:09:32;;;;;;;8.43;7.65;;;21.20;99.90;;;;;;5053259;28;20282;-56
2022/07/24 01:12:00;;;;;;;10.50;8.40;;;21.00;99.90;;;;;;5052784;28;20229;-57
2022/07/24 01:14:27;;;;;;;8.90;7.97;;;20.90;99.90;;;;;;5052524;28;20221;-56
2022/07/24 01:16:53;;;;;;;9.00;8.18;;;20.80;99.90;;;;;;5052679;28;20213;-56
2022/07/24 01:19:20;;;;;;;9.13;8.10;;;20.70;99.90;;;;;;5052709;28;20209;-56
2022/07/24 01:21:49;;;;;;;9.95;8.15;;;20.60;99.90;;;;;;5052773;28;20201;-56
2022/07/24 01:24:16;;;;;;;9.90;8.73;;;20.70;99.90;;;;;;5052251;28;20629;-56
2022/07/24 01:26:43;;;;;;;9.10;8.27;;;20.80;99.90;;;;;;5052293;28;20304;-56
2022/07/24 01:29:10;;;;;;;9.23;8.32;;;20.80;99.90;;;;;;5052582;28;20282;-57
2022/07/24 01:31:37;;;;;;;9.43;8.48;;;20.80;99.90;;;;;;5052906;28;20205;-56
2022/07/24 01:34:04;;;;;;;10.13;7.75;;;20.80;99.90;;;;;;5052505;28;20261;-57
2022/07/24 01:36:31;;;;;;;10.57;8.35;;;20.80;99.90;;;;;;5052561;28;20205;-57
2022/07/24 01:38:59;;;;;;;8.77;8.00;;;20.70;99.90;;;;;;5053011;28;20214;-57
2022/07/24 01:41:26;;;;;;;8.82;7.85;;;20.60;99.90;;;;;;5052838;28;20585;-57
2022/07/24 01:43:53;;;;;;;9.05;8.15;;;20.50;99.90;;;;;;5052547;28;20572;-57
2022/07/24 01:46:19;;;;;;;9.25;8.45;;;20.50;99.90;;;;;;5052952;28;20559;-57
2022/07/24 01:48:46;;;;;;;9.55;8.55;;;20.50;99.90;;;;;;5053143;28;20209;-57
2022/07/24 01:51:13;;;;;;;9.10;8.25;;;20.60;99.90;;;;;;5053566;28;20209;-57
2022/07/24 01:53:39;;;;;;;9.60;8.40;;;20.60;99.90;;;;;;5052622;28;20229;-57
2022/07/24 01:56:08;;;;;;;11.80;8.13;;;20.60;99.90;;;;;;5052411;28;20251;-56
2022/07/24 01:58:34;;;;;;;9.85;8.88;;;20.60;99.90;;;;;;5053111;28;20229;-57
2022/07/24 02:01:02;;;;;;;9.10;8.27;;;20.60;99.90;;;;;;5053322;28;20208;-57
2022/07/24 02:03:29;;;;;;;9.15;8.27;;;20.60;99.90;;;;;;5054318;28;20228;-57
2022/07/24 02:05:55;;;;;;;9.65;8.65;;;20.70;99.90;;;;;;5053971;28;20209;-57
2022/07/24 02:08:22;;;;;;;9.60;8.30;;;20.60;99.90;;;;;;5055520;28;20205;-56
2022/07/24 02:10:49;;;;;;;9.68;8.40;;;20.50;99.90;;;;;;5057157;28;20213;-57
2022/07/24 02:13:17;;;;;;;9.13;8.23;;;20.50;99.90;;;;;;5057073;28;20575;-57
2022/07/24 02:15:43;;;;;;;8.88;7.97;;;20.50;99.90;;;;;;5056604;28;20205;-57
2022/07/24 02:18:10;;;;;;;8.77;7.97;;;20.50;99.90;;;;;;5056445;28;20205;-57
2022/07/24 02:20:37;;;;;;;8.63;7.82;;;20.40;99.90;;;;;;5056240;28;20213;-57
2022/07/24 02:23:04;;;;;;;9.00;8.13;;;20.30;99.90;;;;;;5055858;28;20209;-57
2022/07/24 02:25:31;;;;;;;10.48;8.25;;;20.30;99.90;;;;;;5055837;28;20205;-57
2022/07/24 02:27:58;;;;;;;9.23;8.35;;;20.30;99.90;;;;;;5055654;28;20206;-57
2022/07/24 02:30:26;;;;;;;9.07;8.23;;;20.30;99.90;;;;;;5056790;28;20210;-58
2022/07/24 02:32:53;;;;;;;9.82;8.55;;;20.30;99.90;;;;;;5058499;28;20264;-57
2022/07/24 02:35:20;;;;;;;9.73;8.45;;;20.30;99.90;;;;;;5058033;28;20226;-57
2022/07/24 02:37:47;;;;;;;9.68;8.48;;;20.30;99.90;;;;;;5057423;28;20206;-57
2022/07/24 02:40:14;;;;;;;9.70;8.80;;;20.30;99.90;;;;;;5056620;28;20628;-57
2022/07/24 02:42:42;;;;;;;10.13;9.20;;;20.30;99.90;;;;;;5056053;28;20214;-57
2022/07/24 02:45:09;;;;;;;9.20;8.30;;;20.20;99.90;;;;;;5055905;28;20635;-57
2022/07/24 02:47:47;;;;;;;8.88;8.07;;;20.30;99.90;;;;;;5055822;28;20210;-57
2022/07/24 02:50:14;;;;;;;9.18;8.30;;;20.30;99.90;;;;;;5055414;28;20209;-57
2022/07/24 02:52:41;;;;;;;9.55;8.63;;;20.30;99.90;;;;;;5055234;28;20705;-57
2022/07/24 02:55:09;;;;;;;9.55;8.60;;;20.30;99.90;;;;;;5054929;28;20591;-57
2022/07/24 02:57:36;;;;;;;9.75;8.48;;;20.20;99.90;;;;;;5055314;28;20308;-57
2022/07/24 03:00:03;;;;;;;9.55;8.57;;;20.20;99.90;;;;;;5055653;28;20562;-57
2022/07/24 03:02:30;;;;;;;9.90;8.98;;;20.20;99.90;;;;;;5055481;28;20568;-57
2022/07/24 03:04:58;;;;;;;9.50;8.48;;;20.10;99.90;;;;;;5055308;28;20225;-57
2022/07/24 03:07:25;;;;;;;9.85;8.95;;;20.00;99.90;;;;;;5055638;28;20206;-57
2022/07/24 03:09:52;;;;;;;9.68;8.68;;;20.00;99.90;;;;;;5055141;28;20267;-56
2022/07/24 03:12:19;;;;;;;9.93;8.93;;;19.90;99.90;;;;;;5055255;28;20665;-56
2022/07/24 03:14:45;;;;;;;9.93;9.02;;;19.80;99.90;;;;;;5055042;28;20237;-57
2022/07/24 03:17:12;;;;;;;11.45;9.02;;;19.80;99.90;;;;;;5054851;28;20205;-57
2022/07/24 03:19:39;;;;;;;9.70;8.70;;;19.80;99.90;;;;;;5054666;28;20279;-59
2022/07/24 03:22:07;;;;;;;9.65;8.52;;;19.90;99.90;;;;;;5055005;28;20213;-56
2022/07/24 03:24:34;;;;;;;9.88;8.88;;;19.90;99.90;;;;;;5054978;28;20251;-57
2022/07/24 03:27:01;;;;;;;9.75;8.48;;;19.80;99.90;;;;;;5054944;28;20214;-57
2022/07/24 03:29:27;;;;;;;9.95;8.88;;;19.70;99.90;;;;;;5054806;28;20205;-58
2022/07/24 03:31:54;;;;;;;10.88;9.13;;;19.60;99.90;;;;;;5055057;28;20218;-56
2022/07/24 03:34:21;;;;;;;9.88;8.88;;;19.60;99.90;;;;;;5054802;28;20233;-56
2022/07/24 03:36:48;;;;;;;9.98;8.95;;;19.70;99.90;;;;;;5054747;28;20210;-56
2022/07/24 03:39:16;;;;;;;10.02;8.82;;;19.70;99.90;;;;;;5054518;28;20618;-56
2022/07/24 03:41:42;;;;;;;9.05;8.20;;;19.60;99.90;;;;;;5054691;28;20589;-57
2022/07/24 03:44:09;;;;;;;9.65;8.75;;;19.70;99.90;;;;;;5054556;28;20226;-57
2022/07/24 03:46:36;;;;;;;9.52;8.63;;;19.70;99.90;;;;;;5054564;28;20205;-56
2022/07/24 03:49:03;;;;;;;9.93;9.02;;;19.70;99.90;;;;;;5054317;28;20669;-56
2022/07/24 03:51:30;;;;;;;9.45;8.57;;;19.70;99.90;;;;;;5054594;28;20212;-57
2022/07/24 03:53:57;;;;;;;11.80;9.18;;;19.70;99.90;;;;;;5054943;28;20240;-56
2022/07/24 03:56:25;;;;;;;13.23;9.18;;;19.70;99.90;;;;;;5054518;28;20205;-57
2022/07/24 03:58:51;;;;;;;10.20;9.20;;;19.70;99.90;;;;;;5054094;28;20209;-57
2022/07/24 04:01:18;;;;;;;12.40;9.25;;;19.70;99.90;;;;;;5054087;28;20236;-58
2022/07/24 04:03:45;;;;;;;9.65;8.80;;;19.70;99.90;;;;;;5054025;28;20233;-57
2022/07/24 04:06:12;;;;;;;13.25;9.20;;;19.70;99.90;;;;;;5054086;28;20208;-58
2022/07/24 04:08:38;;;;;;;10.05;9.15;;;19.80;99.90;;;;;;5054109;28;20209;-57
2022/07/24 04:11:07;;;;;;;11.30;9.35;;;19.80;99.90;;;;;;5054041;28;20209;-57
2022/07/24 04:13:35;;;;;;;9.25;8.45;;;19.80;99.90;;;;;;5053508;28;20283;-57
2022/07/24 04:16:02;;;;;;;9.77;8.85;;;19.80;99.90;;;;;;5054137;28;20201;-57
2022/07/24 04:18:29;;;;;;;9.77;8.88;;;19.80;99.90;;;;;;5053985;28;20212;-57
2022/07/24 04:20:56;;;;;;;10.07;8.65;;;19.80;99.90;;;;;;5054071;28;20614;-57
2022/07/24 04:23:22;;;;;;;10.35;9.25;;;19.80;99.90;;;;;;5053340;28;20225;-57
2022/07/24 04:25:49;;;;;;;9.30;8.40;;;19.80;99.90;;;;;;5053690;28;20214;-57
2022/07/24 04:28:16;;;;;;;9.32;8.43;;;19.80;99.90;;;;;;5053620;28;20206;-57
2022/07/24 04:30:44;;;;;;;9.98;9.02;;;19.80;99.90;;;;;;5053097;28;20209;-57
2022/07/24 04:33:11;;;;;;;10.23;9.00;;;19.90;99.90;;;;;;5053396;28;20693;-57
2022/07/24 04:35:38;;;;;;;12.35;9.57;;;19.90;99.90;;;;;;5053448;28;20214;-57
2022/07/24 04:38:05;;;;;;;9.57;8.52;;;20.00;99.90;;;;;;5053375;28;20213;-57
2022/07/24 04:40:31;;;;;;;9.20;8.18;;;20.00;99.90;;;;;;5053377;28;20210;-58
2022/07/24 04:42:58;;;;;;;8.93;8.13;;;20.10;99.90;;;;;;5053038;28;20206;-58
2022/07/24 04:45:25;;;;;;;9.30;8.40;;;20.20;99.90;;;;;;5053013;28;20634;-57
2022/07/24 04:47:53;;;;;;;10.02;9.00;;;20.20;99.90;;;;;;5053594;28;20263;-58
2022/07/24 04:50:20;;;;;;;9.68;8.68;;;20.30;99.90;;;;;;5053288;28;20205;-58
2022/07/24 04:52:46;;;;;;;10.15;8.75;;;20.40;99.90;;;;;;5053274;28;20512;-57
2022/07/24 04:55:13;;;;;;;9.15;8.27;;;20.60;99.90;;;;;;5052828;28;20721;-57
2022/07/24 04:57:40;;;;;;;10.55;8.68;;;20.60;99.90;;;;;;5053345;28;20202;-57
2022/07/24 05:00:11;;;;;;;9.73;8.73;;;20.70;99.90;;;;;;5053072;28;20727;-57
2022/07/24 05:02:38;;;;;;;10.25;9.32;;;20.80;99.90;;;;;;5053343;28;20223;-57
2022/07/24 05:05:07;;;;;;;9.90;9.00;;;20.90;99.90;;;;;;5052820;28;20232;-57
2022/07/24 05:07:34;;;;;;;9.25;8.35;;;21.10;99.90;;;;;;5052946;28;20683;-57
2022/07/24 05:10:01;;;;;;;9.25;8.45;;;21.20;99.90;;;;;;5053147;28;20202;-57
2022/07/24 05:12:28;;;;;;;9.63;8.18;;;21.30;99.90;;;;;;5053343;28;20209;-57
2022/07/24 05:14:54;;;;;;;8.73;7.93;;;21.40;99.90;;;;;;5053166;28;20248;-57
2022/07/24 05:17:21;;;;;;;9.18;8.25;;;21.50;99.90;;;;;;5053421;28;20209;-57
2022/07/24 05:19:48;;;;;;;9.10;8.20;;;21.60;99.90;;;;;;5053544;28;20205;-57
2022/07/24 05:22:16;;;;;;;9.70;8.80;;;21.70;99.90;;;;;;5053345;28;20213;-57
2022/07/24 05:24:43;;;;;;;11.32;8.68;;;21.80;99.90;;;;;;5053106;28;20222;-58
2022/07/24 05:27:10;;;;;;;9.27;8.48;;;21.90;99.90;;;;;;5053034;28;20213;-58
2022/07/24 05:29:36;;;;;;;9.80;8.77;;;22.10;99.90;;;;;;5053312;28;20212;-58
2022/07/24 05:32:03;;;;;;;9.20;8.40;;;22.20;99.90;;;;;;5052570;28;20209;-57
2022/07/24 05:34:31;;;;;;;9.70;7.65;;;22.30;99.90;;;;;;5052244;28;20237;-57
2022/07/24 05:36:58;;;;;;;8.82;7.88;;;22.60;99.90;;;;;;5052390;28;20662;-57
2022/07/24 05:39:26;;;;;;;9.02;7.32;;;23.70;99.90;;;;;;5052826;28;20213;-57
2022/07/24 05:41:53;;;;;;;8.55;7.75;;;25.10;99.90;;;;;;5051528;28;20677;-57
2022/07/24 05:44:20;;;;;;;8.90;7.03;;;26.50;99.90;;;;;;5052324;28;20222;-57
2022/07/24 05:46:47;;;;;;;7.50;6.80;;;27.90;99.90;;;;;;5052316;28;20209;-57
2022/07/24 05:49:14;;;;;;;9.27;7.07;;;29.30;99.90;;;;;;5052357;28;20205;-59
2022/07/24 05:51:41;;;;;;;7.43;6.72;;;30.50;99.90;;;;;;5052488;28;20205;-59
2022/07/24 05:54:07;;;;;;;7.60;6.90;;;31.40;99.90;;;;;;5051983;28;20256;-58
2022/07/24 05:56:35;;;;;;;8.10;7.00;;;32.10;97.70;;;;;;5052344;28;20685;-58
2022/07/24 05:59:02;;;;;;;7.30;6.40;;;33.00;94.70;;;;;;5052390;28;20213;-58
2022/07/24 06:01:29;;;;;;;8.57;6.68;;;33.70;92.00;;;;;;5052154;28;20213;-58
2022/07/24 06:03:55;;;;;;;6.55;5.93;;;34.40;89.90;;;;;;5051820;28;20236;-58
2022/07/24 06:06:22;;;;;;;9.25;5.90;;;35.10;84.60;;;;;;5051949;28;20577;-58
2022/07/24 06:08:49;;;;;;;7.47;6.72;;;35.60;81.70;;;;;;5052219;28;20233;-58
2022/07/24 06:11:17;;;;;;;6.32;5.75;;;36.20;77.30;;;;;;5052136;28;20213;-58
2022/07/24 06:13:45;;;;;;;7.13;6.43;;;36.70;74.30;;;;;;5051595;28;20689;-58
2022/07/24 06:16:12;;;;;;;7.15;6.47;;;37.10;72.00;;;;;;5051787;28;20210;-58
2022/07/24 06:18:38;;;;;;;6.88;6.18;;;37.50;69.70;;;;;;5051737;28;20210;-57
2022/07/24 06:21:05;;;;;;;6.60;6.07;;;37.90;68.00;;;;;;5052368;28;20201;-58
2022/07/24 06:23:33;;;;;;;7.07;6.38;;;38.30;65.80;;;;;;5051988;28;20255;-58
2022/07/24 06:25:59;;;;;;;6.75;6.05;;;38.70;64.60;;;;;;5051807;28;20209;-59
2022/07/24 06:28:26;;;;;;;7.00;6.25;;;39.00;61.70;;;;;;5051860;28;20209;-58
2022/07/24 06:30:54;;;;;;;6.18;5.57;;;39.10;61.50;;;;;;5052313;28;20206;-59
2022/07/24 06:33:21;;;;;;;6.88;6.18;;;39.40;61.00;;;;;;5051821;28;20240;-59
2022/07/24 06:35:47;;;;;;;9.85;6.10;;;40.10;59.20;;;;;;5051832;28;20205;-59
2022/07/24 06:38:16;;;;;;;7.25;5.80;;;40.30;57.40;;;;;;5051840;28;20213;-59
2022/07/24 06:40:42;;;;;;;6.20;5.60;;;39.90;57.70;;;;;;5051822;28;20206;-58
2022/07/24 06:43:09;;;;;;;6.53;5.93;;;39.70;57.60;;;;;;5051354;28;20225;-59
2022/07/24 06:45:36;;;;;;;5.75;5.00;;;39.70;57.10;;;;;;5051443;28;20624;-59
2022/07/24 06:48:05;;;;;;;6.80;5.97;;;39.30;58.20;;;;;;5051777;28;20209;-57
2022/07/24 06:50:31;;;;;;;6.05;5.50;;;39.90;57.00;;;;;;5051523;28;20217;-58
2022/07/24 06:52:58;;;;;;;6.60;5.35;;;40.80;55.20;;;;;;5051830;28;20719;-57
2022/07/24 06:55:25;;;;;;;8.98;5.85;;;41.70;52.70;;;;;;5054765;28;20307;-58
2022/07/24 06:57:51;;;;;;;6.53;5.75;;;42.40;51.10;;;;;;5055354;28;20201;-57
2022/07/24 07:00:18;;;;;;;6.18;5.57;;;42.90;50.10;;;;;;5056069;28;20605;-58
2022/07/24 07:02:45;;;;;;;6.20;5.47;;;43.20;48.60;;;;;;5055801;28;20642;-57
2022/07/24 07:05:13;;;;;;;7.40;5.55;;;43.60;47.80;;;;;;5055396;28;20312;-58
2022/07/24 07:07:40;;;;;;;9.15;7.70;;;44.00;46.50;;;;;;5055742;28;20228;-58
2022/07/24 07:10:08;;;;;;;5.57;5.07;;;44.60;46.10;;;;;;5055664;28;20205;-58
2022/07/24 07:12:35;;;;;;;5.72;5.10;;;45.00;45.00;;;;;;5055736;28;20209;-58
2022/07/24 07:15:03;;;;;;;6.18;4.82;;;45.30;44.10;;;;;;5055740;28;20260;-58
2022/07/24 07:17:30;;;;;;;5.68;5.18;;;45.00;45.20;;;;;;5056091;28;20496;-58
2022/07/24 07:19:57;;;;;;;5.20;4.70;;;44.70;45.20;;;;;;5056347;28;20217;-59
2022/07/24 07:22:25;;;;;;;5.65;5.10;;;44.70;45.20;;;;;;5056094;28;20212;-59
2022/07/24 07:24:52;;;;;;;5.90;5.25;;;45.10;44.60;;;;;;5055368;28;20224;-59
2022/07/24 07:27:18;;;;;;;7.18;5.03;;;45.40;43.30;;;;;;5055098;28;20205;-59
2022/07/24 07:29:45;;;;;;;5.97;4.90;;;45.50;42.80;;;;;;5055293;28;20216;-59
2022/07/24 07:32:12;;;;;;;5.47;4.88;;;45.50;42.70;;;;;;5055193;28;20205;-59
2022/07/24 07:34:38;;;;;;;5.38;4.88;;;45.40;42.40;;;;;;5054269;28;20224;-58
2022/07/24 07:37:05;;;;;;;5.65;5.15;;;44.90;43.00;;;;;;5054905;28;20216;-59
2022/07/24 07:39:33;;;;;;;5.68;5.18;;;45.00;42.60;;;;;;5054832;28;20208;-58
2022/07/24 07:42:00;;;;;;;5.03;4.60;;;44.90;42.70;;;;;;5054824;28;20209;-59
2022/07/24 07:44:27;;;;;;;5.85;5.00;;;44.00;43.80;;;;;;5054291;28;20255;-62
2022/07/24 07:46:53;;;;;;;5.68;5.00;;;42.90;45.00;;;;;;5050221;28;21019;-58
2022/07/24 07:49:20;;;;;;;5.30;4.80;;;41.70;46.20;;;;;;5053411;28;20203;-58
2022/07/24 07:51:51;;;;;;;6.18;5.18;;;40.80;47.40;;;;;;5053589;28;20213;-58
2022/07/24 07:54:18;;;;;;;5.82;5.25;;;41.00;47.30;;;;;;5052556;28;20255;-58
2022/07/24 07:56:46;;;;;;;6.95;4.80;;;42.20;46.10;;;;;;5052716;28;20508;-58
2022/07/24 07:59:12;;;;;;;6.13;5.18;;;43.40;44.10;;;;;;5053557;28;20216;-58
2022/07/24 08:01:39;;;;;;;7.43;5.03;;;44.00;43.60;;;;;;5053669;28;20593;-58
2022/07/24 08:04:06;;;;;;;5.03;4.50;;;43.40;44.10;;;;;;5052868;28;20267;-58
2022/07/24 08:06:33;;;;;;;6.55;4.95;;;43.40;44.00;;;;;;5052132;28;20215;-58
2022/07/24 08:09:00;;;;;;;6.53;5.18;;;43.70;43.70;;;;;;5053332;28;20215;-59
2022/07/24 08:11:27;;;;;;;5.72;4.60;;;44.00;43.50;;;;;;5053134;28;20201;-59
2022/07/24 08:13:56;;;;;;;11.43;5.07;;;44.30;42.60;;;;;;5052578;28;20231;-59
2022/07/24 08:16:23;;;;;;;6.30;4.95;;;44.10;42.80;;;;;;5052709;28;20204;-60
2022/07/24 08:18:49;;;;;;;7.80;5.07;;;44.20;42.90;;;;;;5052789;28;20278;-59
2022/07/24 08:21:18;;;;;;;5.38;4.88;;;43.70;43.00;;;;;;5052729;28;20205;-59
2022/07/24 08:23:44;;;;;;;6.63;4.93;;;43.70;43.40;;;;;;5052743;28;20225;-59
2022/07/24 08:26:12;;;;;;;7.15;4.90;;;43.20;43.60;;;;;;5052461;28;20583;-60
2022/07/24 08:28:38;;;;;;;5.50;5.00;;;42.70;44.00;;;;;;5053090;28;20248;-58
2022/07/24 08:31:07;;;;;;;5.22;4.72;;;42.60;43.80;;;;;;5052494;28;20208;-59
2022/07/24 08:33:33;;;;;;;5.53;4.90;;;42.90;43.60;;;;;;5052749;28;20237;-58
2022/07/24 08:36:00;;;;;;;5.88;4.82;;;42.80;43.80;;;;;;5052047;28;20765;-58
2022/07/24 08:38:27;;;;;;;9.75;8.75;;;42.70;43.90;;;;;;5052710;28;20205;-58
2022/07/24 08:40:53;;;;;;;5.65;4.93;;;42.30;44.20;;;;;;5052479;28;20219;-59
2022/07/24 08:43:20;;;;;;;6.07;5.47;;;42.00;44.40;;;;;;5052054;28;20217;-58
2022/07/24 08:45:48;;;;;;;5.80;5.03;;;40.90;45.90;;;;;;5052051;28;20197;-58
2022/07/24 08:48:18;;;;;;;8.45;5.53;;;39.20;47.70;;;;;;5052071;28;20205;-58
2022/07/24 08:50:44;;;;;;;7.20;4.97;;;37.80;49.90;;;;;;5052488;28;20205;-58
2022/07/24 08:53:11;;;;;;;6.47;5.88;;;37.00;51.70;;;;;;5052345;28;20224;-58
2022/07/24 08:55:38;;;;;;;8.25;5.55;;;36.50;52.20;;;;;;5052210;28;20225;-58
2022/07/24 08:58:05;;;;;;;5.82;5.32;;;35.90;53.40;;;;;;5051940;28;20620;-59
2022/07/24 09:00:33;;;;;;;6.68;5.55;;;35.30;54.40;;;;;;5052243;28;20209;-58
2022/07/24 09:03:00;;;;;;;6.05;5.32;;;34.50;55.20;;;;;;5052186;28;20263;-58
2022/07/24 09:05:29;;;;;;;6.63;5.00;;;33.80;57.10;;;;;;5051711;28;20712;-58
2022/07/24 09:08:07;;;;;;;6.35;5.63;;;33.30;58.30;;;;;;5052080;28;20300;-58
2022/07/24 09:10:34;;;;;;;6.97;6.03;;;33.00;58.80;;;;;;5052193;28;20556;-58
2022/07/24 09:13:14;;;;;;;5.88;5.30;;;32.90;59.50;;;;;;5052362;28;20267;-58
2022/07/24 09:15:46;;;;;;;5.80;5.28;;;32.80;59.60;;;;;;5051827;28;20696;-58
2022/07/24 09:18:26;;;;;;;6.63;5.97;;;32.80;59.90;;;;;;5051992;28;20216;-58
2022/07/24 09:20:56;;;;;;;6.57;5.90;;;32.70;60.10;;;;;;5051953;28;20300;-58
2022/07/24 09:23:23;;;;;;;7.53;6.10;;;32.70;60.30;;;;;;5052042;28;20340;-58
2022/07/24 09:25:52;;;;;;;6.00;5.40;;;32.60;60.00;;;;;;5051702;28;20701;-58
2022/07/24 09:28:20;;;;;;;6.15;5.65;;;32.40;60.40;;;;;;5051346;28;20233;-58
2022/07/24 09:30:48;;;;;;;7.00;5.90;;;32.10;61.50;;;;;;5052117;28;20292;-58
2022/07/24 09:33:16;;;;;;;6.30;5.55;;;32.00;61.90;;;;;;5051903;28;20201;-58
2022/07/24 09:35:45;;;;;;;6.43;5.80;;;31.80;62.60;;;;;;5051256;28;20237;-58
2022/07/24 09:38:14;;;;;;;7.25;6.55;;;31.60;62.70;;;;;;5051611;28;20241;-58
2022/07/24 09:40:44;;;;;;;6.28;5.68;;;31.50;62.10;;;;;;5051475;28;20263;-58
2022/07/24 09:43:19;;;;;;;6.82;5.15;;;31.40;62.60;;;;;;5051412;28;20213;-58
2022/07/24 09:45:55;;;;;;;6.40;5.43;;;31.60;61.60;;;;;;5051135;28;20564;-58
2022/07/24 09:48:23;;;;;;;5.75;5.25;;;31.60;61.60;;;;;;5051624;28;20209;-58
2022/07/24 09:50:51;;;;;;;5.63;5.13;;;31.60;62.50;;;;;;5051841;28;20213;-59
2022/07/24 09:56:06;;;;;;;7.20;4.90;;;31.60;60.80;;;;;;5067490;28;20227;-54
2022/07/24 09:58:35;;;;;;;5.18;4.72;;;31.80;60.10;;;;;;5051025;28;20205;-54
2022/07/24 10:01:02;;;;;;;5.38;4.80;;;32.10;59.70;;;;;;5050727;28;20738;-54
2022/07/24 10:03:31;;;;;;;5.20;4.43;;;32.20;59.70;;;;;;5050707;28;20308;-55
2022/07/24 10:06:01;;;;;;;5.22;4.70;;;32.20;59.50;;;;;;5050683;28;20266;-54
2022/07/24 10:08:29;;;;;;;5.00;4.40;;;32.20;59.50;;;;;;5051539;28;20604;-53
2022/07/24 10:10:56;;;;;;;6.63;4.75;;;32.40;59.20;;;;;;5051029;28;20301;-53
2022/07/24 10:13:27;;;;;;;6.32;4.65;;;32.50;58.50;;;;;;5051140;28;20214;-54
2022/07/24 10:16:08;;;;;;;5.28;4.78;;;32.50;58.70;;;;;;5050908;28;20236;-52
2022/07/24 10:18:46;;;;;;;4.78;4.38;;;32.60;57.50;;;;;;5050996;28;20209;-55
2022/07/24 10:21:17;;;;;;;5.13;4.68;;;32.40;58.30;;;;;;5051421;28;20606;-56
2022/07/24 10:24:03;;;;;;;7.43;4.65;;;32.30;58.00;;;;;;5050906;28;20233;-57
2022/07/24 10:26:35;;;;;;;5.15;4.75;;;32.40;57.30;;;;;;5050224;28;20202;-55
2022/07/24 10:29:10;;;;;;;5.70;4.60;;;32.40;57.70;;;;;;5052751;28;20701;-55
2022/07/24 10:31:38;;;;;;;6.57;4.70;;;32.30;58.40;;;;;;5054751;28;20292;-56
2022/07/24 10:34:09;;;;;;;5.68;4.35;;;32.20;58.60;;;;;;5054601;28;20221;-57
2022/07/24 10:36:42;;;;;;;4.90;4.40;;;32.10;58.30;;;;;;5054536;28;20221;-55
2022/07/24 10:39:14;;;;;;;5.70;4.90;;;32.00;58.00;;;;;;5054275;28;20206;-55
2022/07/24 10:41:40;;;;;;;5.38;4.43;;;31.90;58.10;;;;;;5054747;28;20300;-55
2022/07/24 10:44:17;;;;;;;5.68;4.70;;;31.70;58.40;;;;;;5054456;28;20233;-56
2022/07/24 10:47:00;;;;;;;4.85;4.43;;;31.70;58.50;;;;;;5054350;28;20204;-54
2022/07/24 10:49:42;;;;;;;6.68;4.57;;;31.70;58.80;;;;;;5054293;28;20210;-55
2022/07/24 10:52:10;;;;;;;5.15;4.47;;;31.80;58.90;;;;;;5055058;28;20304;-58
2022/07/24 10:54:37;;;;;;;7.95;4.53;;;32.00;59.50;;;;;;5054281;28;20229;-57
2022/07/24 10:57:03;;;;;;;6.10;4.88;;;32.20;58.90;;;;;;5053984;28;20282;-57
2022/07/24 10:59:36;;;;;;;6.20;5.22;;;32.50;58.10;;;;;;5054837;28;20573;-55
2022/07/24 11:02:25;;;;;;;6.07;4.72;;;32.70;58.00;;;;;;5054578;28;20268;-55
2022/07/24 11:05:26;;;;;;;5.30;4.80;;;32.90;57.70;;;;;;5054119;28;20474;-56
2022/07/24 11:08:35;;;;;;;6.18;4.90;;;33.00;57.60;;;;;;5053609;28;20352;-58
2022/07/24 11:11:14;;;;;;;5.53;5.00;;;32.90;57.00;;;;;;5053878;28;20259;-56
2022/07/24 11:13:49;;;;;;;5.90;4.70;;;32.90;57.40;;;;;;5053510;28;20217;-55
2022/07/24 11:16:22;;;;;;;5.30;4.80;;;32.90;56.70;;;;;;5053225;28;20232;-57
2022/07/24 11:19:30;;;;;;;5.18;4.55;;;32.80;56.40;;;;;;5053490;28;20209;-56
2022/07/24 11:22:11;;;;;;;5.78;4.78;;;32.80;56.80;;;;;;5053233;28;20232;-54
2022/07/24 11:24:43;;;;;;;5.88;4.90;;;32.80;56.90;;;;;;5052963;28;20572;-53
2022/07/24 11:27:18;;;;;;;5.05;4.55;;;32.80;56.50;;;;;;5053537;28;20293;-55
2022/07/24 11:29:44;;;;;;;5.60;4.68;;;32.70;57.00;;;;;;5053163;28;20209;-54
2022/07/24 11:32:17;;;;;;;5.00;4.50;;;32.60;57.50;;;;;;5052998;28;20258;-56
2022/07/24 11:34:46;;;;;;;7.32;4.80;;;32.60;57.90;;;;;;5052621;28;20226;-56
2022/07/24 11:37:14;;;;;;;6.03;4.70;;;32.70;58.10;;;;;;5052937;28;20324;-56
2022/07/24 11:39:41;;;;;;;5.13;4.00;;;32.60;57.50;;;;;;5053103;28;20586;-55
2022/07/24 11:42:10;;;;;;;6.57;4.47;;;32.50;57.60;;;;;;5053174;28;20201;-57
2022/07/24 11:44:40;;;;;;;5.60;5.00;;;32.60;57.90;;;;;;5052749;28;20225;-56
2022/07/24 11:47:10;;;;;;;6.13;5.22;;;32.80;56.90;;;;;;5053164;28;20669;-57
2022/07/24 11:49:43;;;;;;;6.15;5.55;;;33.00;57.10;;;;;;5053247;28;20609;-58
2022/07/24 11:52:16;;;;;;;5.90;4.68;;;33.20;56.80;;;;;;5053660;28;20213;-57
2022/07/24 11:54:42;;;;;;;5.10;4.55;;;33.40;55.60;;;;;;5053883;28;20241;-53
2022/07/24 11:57:18;;;;;;;6.10;4.53;;;33.40;55.60;;;;;;5054130;28;20275;-53
2022/07/24 11:59:45;;;;;;;6.30;5.30;;;33.20;56.20;;;;;;5054311;28;20284;-53
2022/07/24 12:02:12;;;;;;;5.18;4.78;;;32.80;56.90;;;;;;5053737;28;20209;-53
2022/07/24 12:04:41;;;;;;;4.97;4.50;;;32.70;57.50;;;;;;5053777;28;20257;-53
2022/07/24 12:07:11;;;;;;;7.93;7.05;;;32.70;57.40;;;;;;5053900;28;20201;-53
2022/07/24 12:09:45;;;;;;;6.32;4.88;;;32.90;57.30;;;;;;5054291;28;20492;-53
2022/07/24 12:12:19;;;;;;;5.40;4.85;;;32.80;56.90;;;;;;5053947;28;20300;-53
2022/07/24 12:14:47;;;;;;;5.30;4.80;;;32.60;57.30;;;;;;5053361;28;20279;-53
2022/07/24 12:17:13;;;;;;;6.38;4.80;;;32.60;56.80;;;;;;5053487;28;20646;-52
2022/07/24 12:19:40;;;;;;;5.32;4.82;;;32.60;56.80;;;;;;5053758;28;20206;-55
2022/07/24 12:22:08;;;;;;;7.68;4.85;;;32.40;57.30;;;;;;5053657;28;20223;-53
2022/07/24 12:24:35;;;;;;;6.30;4.70;;;32.40;58.20;;;;;;5053298;28;20226;-52
2022/07/24 12:27:02;;;;;;;5.30;4.75;;;32.40;57.20;;;;;;5053475;28;20587;-53
2022/07/24 12:29:28;;;;;;;6.65;4.78;;;32.50;57.10;;;;;;5053264;28;20209;-53
2022/07/24 12:32:13;;;;;;;5.53;4.85;;;32.40;56.80;;;;;;5053892;28;20206;-53
2022/07/24 12:34:44;;;;;;;5.95;4.75;;;32.50;56.80;;;;;;5053486;28;20253;-52
2022/07/24 12:37:19;;;;;;;7.47;4.65;;;32.50;57.00;;;;;;5053511;28;20226;-54
2022/07/24 12:39:47;;;;;;;6.20;4.65;;;32.60;57.30;;;;;;5053609;28;20267;-54
2022/07/24 12:42:14;;;;;;;6.15;4.35;;;32.70;56.50;;;;;;5053388;28;20597;-53
2022/07/24 12:44:42;;;;;;;5.53;4.85;;;32.70;56.70;;;;;;5052999;28;20283;-53
2022/07/24 12:47:09;;;;;;;5.80;4.93;;;32.50;56.80;;;;;;5052904;28;20232;-55
2022/07/24 12:49:42;;;;;;;5.15;4.63;;;32.50;57.40;;;;;;5053129;28;20259;-53
2022/07/24 12:52:23;;;;;;;6.28;5.15;;;32.50;57.10;;;;;;5052597;28;20297;-52
2022/07/24 12:54:51;;;;;;;7.07;4.43;;;32.60;56.40;;;;;;5052308;28;20273;-54